Terminal Aerodrome Forecast
Issued by NWS

Home | Current Version | Previous Version | Text Only | Print | Product List | Glossary On
Versions: 1 2 3 4 5 6 7 8 9 10 11 12 13 14 15 16 17 18 19 20 21
000
FTUS44 KJAN 261722
TAFHKS
TAF
KHKS 261722Z 2618/2718 29004KT P6SM BKN045 BKN050
     FM262000 33012G18KT P6SM -SHRA OVC015
     FM270200 36008KT P6SM OVC015
     FM270800 01004KT P6SM OVC050
     FM270900 36003KT P6SM BKN250
     FM271500 35007KT P6SM OVC250=

USA.gov is the U.S. government's official web portal to all federal, state and local government web resources and services.